Time;durP1;ratioP1;P1;durP2;ratioP2;P2;SDS_P1;SDS_P2;PMS_P1;PMS_P2;Temp;Humidity;BMP_temperature;BMP_pressure;BME280_temperature;BME280_humidity;BME280_pressure;Samples;Min_cycle;Max_cycle;Signal;HPM_P1;HPM_P2
2021/12/19 00:04:24;;;;;;;5.47;3.67;;;7.80;99.90;;;;;;647973;222;26582;-83
2021/12/19 00:09:15;;;;;;;8.83;4.43;;;7.90;99.90;;;;;;647992;222;26582;-83
2021/12/19 00:11:42;;;;;;;9.40;3.97;;;7.80;99.90;;;;;;647882;221;26566;-83
2021/12/19 00:14:09;;;;;;;6.10;3.83;;;7.80;99.90;;;;;;647710;222;26574;-82
2021/12/19 00:16:37;;;;;;;9.30;3.80;;;7.80;99.90;;;;;;647695;222;26844;-83
2021/12/19 00:19:05;;;;;;;7.50;4.07;;;7.70;99.90;;;;;;647525;222;26565;-83
2021/12/19 00:21:33;;;;;;;10.07;4.13;;;7.70;99.90;;;;;;647477;218;26799;-82
2021/12/19 00:24:01;;;;;;;8.23;3.60;;;7.70;99.90;;;;;;647537;220;26525;-82
2021/12/19 00:26:28;;;;;;;6.17;3.60;;;7.70;99.90;;;;;;647571;222;26796;-83
2021/12/19 00:28:55;;;;;;;12.03;3.97;;;7.80;99.90;;;;;;647501;222;26813;-83
2021/12/19 00:31:22;;;;;;;8.40;3.97;;;7.90;99.90;;;;;;647289;222;26773;-83
2021/12/19 00:33:50;;;;;;;8.03;3.80;;;7.90;99.90;;;;;;647298;222;26740;-83
2021/12/19 00:36:18;;;;;;;7.90;3.40;;;7.90;99.90;;;;;;647279;222;26528;-83
2021/12/19 00:38:45;;;;;;;7.63;3.67;;;7.80;99.90;;;;;;647270;220;26704;-83
2021/12/19 00:41:12;;;;;;;10.27;3.60;;;7.80;99.90;;;;;;647334;222;26540;-83
2021/12/19 00:43:46;;;;;;;12.13;3.87;;;7.90;99.90;;;;;;647254;222;26763;-83
2021/12/19 00:46:10;;;;;;;9.13;4.00;;;7.80;99.90;;;;;;647457;222;26740;-83
2021/12/19 00:48:39;;;;;;;8.53;3.50;;;7.70;99.90;;;;;;647586;218;26483;-83
2021/12/19 00:51:06;;;;;;;11.00;4.10;;;7.70;99.90;;;;;;647592;222;26726;-83
2021/12/19 00:53:33;;;;;;;10.27;4.20;;;7.80;99.90;;;;;;647698;222;26480;-83
2021/12/19 00:56:01;;;;;;;10.07;5.00;;;7.80;99.90;;;;;;647672;222;26475;-83
2021/12/19 00:58:28;;;;;;;10.73;4.33;;;7.90;99.90;;;;;;647628;222;26495;-83
2021/12/19 01:00:55;;;;;;;8.93;4.67;;;7.90;99.90;;;;;;647666;222;26784;-83
2021/12/19 01:03:22;;;;;;;10.03;4.57;;;8.00;99.90;;;;;;647730;222;26753;-83
2021/12/19 01:05:50;;;;;;;10.53;4.80;;;8.10;99.90;;;;;;649028;220;26486;-83
2021/12/19 01:08:17;;;;;;;11.17;5.23;;;7.90;99.90;;;;;;649054;222;26778;-83
2021/12/19 01:10:44;;;;;;;11.17;5.57;;;7.80;99.90;;;;;;648421;221;26546;-83
2021/12/19 01:13:11;;;;;;;11.23;5.03;;;7.70;99.90;;;;;;648221;222;26506;-83
2021/12/19 01:15:39;;;;;;;10.10;4.90;;;7.70;99.90;;;;;;648026;222;26510;-83
2021/12/19 01:18:07;;;;;;;11.80;5.37;;;7.70;99.90;;;;;;647960;222;26502;-83
2021/12/19 01:20:34;;;;;;;9.30;4.83;;;7.80;99.90;;;;;;647962;222;26622;-83
2021/12/19 01:23:02;;;;;;;7.97;4.80;;;7.70;99.90;;;;;;647836;222;26566;-83
2021/12/19 01:25:30;;;;;;;5.20;4.37;;;7.80;99.90;;;;;;647689;222;26561;-83
2021/12/19 01:27:58;;;;;;;6.57;4.83;;;7.70;99.90;;;;;;647691;222;26572;-83
2021/12/19 01:30:25;;;;;;;9.50;5.40;;;7.70;99.90;;;;;;647732;220;26588;-83
2021/12/19 01:32:52;;;;;;;9.37;5.60;;;7.70;99.90;;;;;;647722;222;26607;-83
2021/12/19 01:35:19;;;;;;;8.93;5.20;;;7.70;99.90;;;;;;647665;222;26809;-83
2021/12/19 01:37:47;;;;;;;6.23;5.60;;;7.60;99.90;;;;;;647777;222;26597;-83
2021/12/19 01:40:15;;;;;;;7.10;5.50;;;7.60;99.90;;;;;;647700;222;26578;-83
2021/12/19 01:42:42;;;;;;;9.37;6.07;;;7.50;99.90;;;;;;647323;220;26524;-83
2021/12/19 01:45:10;;;;;;;9.73;6.10;;;7.50;99.90;;;;;;647306;222;26535;-83
2021/12/19 01:47:38;;;;;;;8.27;6.10;;;7.50;99.90;;;;;;647295;222;26519;-83
2021/12/19 01:50:05;;;;;;;12.13;6.97;;;7.50;99.90;;;;;;647356;222;26817;-83
2021/12/19 01:52:32;;;;;;;11.07;7.03;;;7.60;99.90;;;;;;647338;222;27069;-83
2021/12/19 01:55:00;;;;;;;9.43;7.20;;;7.60;99.90;;;;;;647396;222;26492;-83
2021/12/19 01:57:27;;;;;;;7.37;6.70;;;7.60;99.90;;;;;;647438;220;26734;-83
2021/12/19 01:59:55;;;;;;;7.93;7.13;;;7.70;99.90;;;;;;647316;222;26573;-82
2021/12/19 02:02:23;;;;;;;8.10;6.90;;;7.80;99.90;;;;;;647183;220;26508;-83
2021/12/19 02:04:50;;;;;;;8.73;6.47;;;7.80;99.90;;;;;;647120;222;26535;-83
2021/12/19 02:07:17;;;;;;;8.53;6.90;;;7.90;99.90;;;;;;647170;222;26553;-83
2021/12/19 02:09:44;;;;;;;6.87;6.20;;;7.80;99.90;;;;;;647142;222;26801;-83
2021/12/19 02:12:12;;;;;;;8.50;6.67;;;7.70;99.90;;;;;;647181;222;26531;-83
2021/12/19 02:14:40;;;;;;;8.67;6.00;;;7.70;99.90;;;;;;647212;222;26524;-83
2021/12/19 02:17:07;;;;;;;5.87;5.30;;;7.70;99.90;;;;;;648431;220;26521;-83
2021/12/19 02:19:36;;;;;;;6.77;6.07;;;7.80;99.90;;;;;;648668;221;26544;-83
2021/12/19 02:22:02;;;;;;;9.83;4.60;;;7.70;99.90;;;;;;648261;222;26787;-83
2021/12/19 02:24:30;;;;;;;8.97;5.00;;;7.60;99.90;;;;;;648261;222;26513;-83
2021/12/19 02:26:58;;;;;;;7.77;5.00;;;7.50;99.90;;;;;;647972;222;26581;-83
2021/12/19 02:29:25;;;;;;;9.70;4.90;;;7.50;99.90;;;;;;647935;221;26599;-83
2021/12/19 02:31:52;;;;;;;5.67;4.40;;;7.60;99.90;;;;;;647942;221;26590;-83
2021/12/19 02:34:24;;;;;;;6.10;4.60;;;7.60;99.90;;;;;;647837;222;26792;-83
2021/12/19 02:36:58;;;;;;;4.30;4.00;;;7.60;99.90;;;;;;647277;222;26571;-83
2021/12/19 02:49:36;;;;;;;8.77;4.17;;;7.70;99.90;;;;;;647601;222;26839;-83
2021/12/19 02:52:06;;;;;;;5.40;3.63;;;7.80;99.90;;;;;;647550;220;26571;-82
2021/12/19 02:54:31;;;;;;;5.03;3.40;;;7.70;99.90;;;;;;646681;222;26548;-82
2021/12/19 02:56:59;;;;;;;7.17;3.50;;;7.60;99.90;;;;;;647350;222;26772;-83
2021/12/19 02:59:26;;;;;;;6.33;3.20;;;7.50;99.90;;;;;;647278;222;26549;-83
2021/12/19 03:01:53;;;;;;;3.87;2.97;;;7.60;99.90;;;;;;636082;222;26787;-83
2021/12/19 03:04:22;;;;;;;3.00;2.80;;;7.60;99.90;;;;;;647356;222;26513;-82
2021/12/19 03:06:49;;;;;;;3.30;2.90;;;7.60;99.90;;;;;;647341;222;26515;-83
2021/12/19 03:09:30;;;;;;;3.57;2.60;;;7.50;99.90;;;;;;647369;220;26586;-83
2021/12/19 03:12:04;;;;;;;4.57;3.43;;;7.60;99.90;;;;;;646159;222;26520;-83
2021/12/19 03:19:19;;;;;;;4.37;2.73;;;7.60;99.90;;;;;;647379;222;26528;-83
2021/12/19 03:21:46;;;;;;;6.13;3.43;;;7.50;99.90;;;;;;647307;222;26496;-83
2021/12/19 03:24:14;;;;;;;3.17;2.87;;;7.60;99.90;;;;;;647365;222;26499;-82
2021/12/19 03:26:41;;;;;;;4.27;2.53;;;7.60;99.90;;;;;;647169;220;26831;-83
2021/12/19 03:29:08;;;;;;;5.73;2.90;;;7.60;99.90;;;;;;648779;220;26551;-83
2021/12/19 03:31:36;;;;;;;3.53;3.00;;;7.60;99.90;;;;;;648762;219;27231;-83
2021/12/19 03:34:03;;;;;;;5.27;3.17;;;7.60;99.90;;;;;;648282;222;26549;-82
2021/12/19 03:36:31;;;;;;;3.60;2.50;;;7.60;99.90;;;;;;648323;221;26554;-83
2021/12/19 03:39:01;;;;;;;2.67;2.47;;;7.60;99.90;;;;;;645879;222;26580;-83
2021/12/19 03:41:33;;;;;;;3.63;3.10;;;7.70;99.90;;;;;;644592;222;26569;-83
2021/12/19 03:43:53;;;;;;;6.60;2.80;;;7.70;99.90;;;;;;644623;221;26790;-84
2021/12/19 03:46:20;;;;;;;3.73;2.73;;;7.70;99.90;;;;;;643372;222;26582;-83
2021/12/19 03:48:47;;;;;;;4.87;2.63;;;7.60;99.90;;;;;;650215;221;26538;-85
2021/12/19 03:51:15;;;;;;;3.40;2.97;;;7.60;99.90;;;;;;650265;221;26536;-85
2021/12/19 03:53:42;;;;;;;4.53;2.80;;;7.60;99.90;;;;;;650229;221;27170;-84
2021/12/19 03:56:10;;;;;;;5.00;3.30;;;7.60;99.90;;;;;;649909;221;26519;-85
2021/12/19 03:58:37;;;;;;;3.40;3.10;;;7.60;99.90;;;;;;646787;221;26750;-85
2021/12/19 04:01:07;;;;;;;3.33;3.00;;;7.60;99.90;;;;;;646016;222;26769;-85
2021/12/19 04:03:31;;;;;;;3.90;3.27;;;7.60;99.90;;;;;;647349;221;26599;-85
2021/12/19 04:05:58;;;;;;;3.87;3.10;;;7.50;99.90;;;;;;647267;221;26524;-85
2021/12/19 04:08:25;;;;;;;5.90;3.77;;;7.60;99.90;;;;;;647281;222;26557;-84
2021/12/19 04:10:53;;;;;;;4.70;3.47;;;7.60;99.90;;;;;;647300;221;26786;-85
2021/12/19 04:13:21;;;;;;;4.07;3.47;;;7.60;99.90;;;;;;647352;222;26527;-84
2021/12/19 04:15:49;;;;;;;6.20;3.83;;;7.70;99.90;;;;;;647362;222;26524;-84
2021/12/19 04:18:16;;;;;;;3.60;3.30;;;7.70;99.90;;;;;;647331;222;26516;-84
2021/12/19 04:20:44;;;;;;;4.33;3.60;;;7.60;99.90;;;;;;647294;222;26539;-84
2021/12/19 04:23:11;;;;;;;5.50;3.93;;;7.60;99.90;;;;;;647323;222;26528;-85
2021/12/19 04:25:39;;;;;;;3.93;3.33;;;7.70;99.90;;;;;;647348;222;26753;-84
2021/12/19 04:28:06;;;;;;;4.30;3.90;;;7.70;99.90;;;;;;647322;222;26516;-84
2021/12/19 04:30:34;;;;;;;5.30;4.20;;;7.80;99.90;;;;;;647375;222;26528;-84
2021/12/19 04:33:04;;;;;;;4.10;3.70;;;7.70;99.90;;;;;;647331;222;26548;-84
2021/12/19 04:35:31;;;;;;;6.43;4.20;;;7.70;99.90;;;;;;647141;222;26511;-84
2021/12/19 04:38:37;;;;;;;11.50;5.07;;;7.80;99.90;;;;;;647022;222;26796;-85
2021/12/19 04:40:38;;;;;;;5.10;4.03;;;7.80;99.90;;;;;;646666;220;26622;-85
2021/12/19 04:53:58;;;;;;;6.03;4.50;;;7.70;99.90;;;;;;648026;222;26522;-80
2021/12/19 05:01:19;;;;;;;6.60;4.90;;;7.60;99.90;;;;;;647742;222;26560;-80
2021/12/19 05:06:31;;;;;;;6.23;4.60;;;7.60;99.90;;;;;;647665;222;26571;-80
2021/12/19 05:16:21;;;;;;;6.27;4.30;;;7.60;99.90;;;;;;647254;222;26571;-80
2021/12/19 05:18:49;;;;;;;6.73;4.07;;;7.50;99.90;;;;;;647103;220;26557;-80
2021/12/19 05:21:18;;;;;;;7.50;4.40;;;7.50;99.90;;;;;;647105;222;26537;-80
2021/12/19 05:24:15;;;;;;;4.23;3.87;;;7.60;99.90;;;;;;646925;222;26757;-80
2021/12/19 05:26:21;;;;;;;5.77;4.00;;;7.60;99.90;;;;;;645398;222;26512;-81
2021/12/19 05:28:49;;;;;;;9.27;5.17;;;7.50;99.90;;;;;;647210;220;26734;-84
2021/12/19 05:31:16;;;;;;;10.83;4.30;;;7.60;99.90;;;;;;647300;222;26504;-80
2021/12/19 05:33:44;;;;;;;6.13;4.43;;;7.70;99.90;;;;;;647235;220;26795;-80
2021/12/19 05:44:10;;;;;;;6.23;4.20;;;7.60;99.90;;;;;;647202;222;26540;-80
2021/12/19 05:46:24;;;;;;;9.77;4.03;;;7.50;99.90;;;;;;647194;222;26796;-80
2021/12/19 05:48:51;;;;;;;8.93;4.20;;;7.50;99.90;;;;;;647175;222;26770;-80
2021/12/19 05:51:18;;;;;;;6.10;3.87;;;7.40;99.90;;;;;;647944;220;26507;-80
2021/12/19 05:53:46;;;;;;;7.27;4.23;;;7.40;99.90;;;;;;648812;221;26491;-80
2021/12/19 05:56:13;;;;;;;9.43;4.60;;;7.40;99.90;;;;;;648405;222;26580;-80
2021/12/19 05:58:40;;;;;;;6.57;3.67;;;7.40;99.90;;;;;;648190;222;26547;-80
2021/12/19 06:01:08;;;;;;;6.27;3.57;;;7.40;99.90;;;;;;647919;222;26908;-80
2021/12/19 06:03:35;;;;;;;7.20;3.77;;;7.50;99.90;;;;;;647795;222;26563;-80
2021/12/19 06:06:02;;;;;;;7.07;4.03;;;7.50;99.90;;;;;;647863;222;26542;-81
2021/12/19 06:08:30;;;;;;;8.97;3.90;;;7.50;99.90;;;;;;647863;222;26560;-83
2021/12/19 06:10:57;;;;;;;5.60;4.43;;;7.50;99.90;;;;;;647579;222;26848;-80
2021/12/19 06:13:24;;;;;;;6.80;4.40;;;7.40;99.90;;;;;;647670;222;26519;-80
2021/12/19 06:15:54;;;;;;;3.97;3.50;;;7.50;99.90;;;;;;647722;220;26811;-81
2021/12/19 06:18:20;;;;;;;8.23;3.83;;;7.30;99.90;;;;;;647447;220;26536;-80
2021/12/19 06:20:48;;;;;;;7.17;3.60;;;7.30;99.90;;;;;;647745;222;26603;-80
2021/12/19 06:23:15;;;;;;;8.50;4.00;;;7.30;99.90;;;;;;647744;222;26584;-80
2021/12/19 06:25:45;;;;;;;3.93;3.53;;;7.40;99.90;;;;;;647715;222;26561;-80
2021/12/19 06:28:09;;;;;;;7.20;3.70;;;7.40;99.90;;;;;;647221;222;26738;-80
2021/12/19 06:30:37;;;;;;;5.97;3.83;;;7.40;99.90;;;;;;647396;221;26553;-80
2021/12/19 06:33:05;;;;;;;6.73;3.87;;;7.40;99.90;;;;;;647363;220;26515;-81
2021/12/19 06:35:32;;;;;;;6.93;3.40;;;7.40;99.90;;;;;;647392;220;26527;-80
2021/12/19 06:37:59;;;;;;;6.60;3.70;;;7.40;99.90;;;;;;647357;222;26475;-80
2021/12/19 06:40:27;;;;;;;4.17;3.37;;;7.40;99.90;;;;;;647232;222;26798;-80
2021/12/19 06:42:54;;;;;;;7.47;3.90;;;7.40;99.90;;;;;;647269;222;26534;-80
2021/12/19 06:45:21;;;;;;;5.20;3.30;;;7.40;99.90;;;;;;647274;222;26533;-80
2021/12/19 06:47:49;;;;;;;7.37;3.87;;;7.30;99.90;;;;;;647232;222;26499;-79
2021/12/19 06:50:16;;;;;;;8.13;3.63;;;7.30;99.90;;;;;;647300;219;27080;-79
2021/12/19 06:52:43;;;;;;;6.77;3.33;;;7.20;99.90;;;;;;647191;220;26519;-79
2021/12/19 06:55:10;;;;;;;7.20;3.40;;;7.10;99.90;;;;;;647183;218;26810;-80
2021/12/19 06:57:38;;;;;;;4.90;2.50;;;7.10;99.90;;;;;;647067;218;26512;-81
2021/12/19 07:00:08;;;;;;;5.30;2.67;;;7.10;99.90;;;;;;647104;220;26565;-80
2021/12/19 07:02:35;;;;;;;2.63;2.20;;;7.10;99.90;;;;;;647544;220;26526;-80
2021/12/19 07:05:02;;;;;;;4.07;2.50;;;7.10;99.90;;;;;;648916;221;26804;-80
2021/12/19 07:07:30;;;;;;;3.30;2.60;;;7.20;99.90;;;;;;648455;222;26570;-80
2021/12/19 07:09:57;;;;;;;2.87;2.57;;;7.20;99.90;;;;;;648187;222;27183;-80
2021/12/19 07:12:26;;;;;;;4.40;2.30;;;7.40;99.90;;;;;;648034;222;26514;-78
2021/12/19 07:14:53;;;;;;;3.70;2.43;;;7.40;99.90;;;;;;647872;222;26885;-80
2021/12/19 07:17:20;;;;;;;6.33;2.40;;;7.40;99.90;;;;;;647936;222;26547;-80
2021/12/19 07:19:47;;;;;;;3.60;2.27;;;7.20;99.90;;;;;;647880;222;26584;-80
2021/12/19 07:22:15;;;;;;;4.47;2.30;;;7.20;99.90;;;;;;647646;221;26581;-80
2021/12/19 07:24:42;;;;;;;4.53;2.43;;;7.10;99.90;;;;;;647582;222;26864;-80
2021/12/19 07:27:09;;;;;;;4.83;2.40;;;7.20;99.90;;;;;;647531;222;26578;-80
2021/12/19 07:29:37;;;;;;;2.83;2.57;;;7.10;99.90;;;;;;647530;222;26858;-80
2021/12/19 07:32:04;;;;;;;6.30;2.83;;;7.10;99.90;;;;;;647573;220;26553;-80
2021/12/19 07:34:34;;;;;;;3.00;2.80;;;7.20;99.90;;;;;;647579;222;26575;-82
2021/12/19 07:37:00;;;;;;;4.87;3.37;;;7.20;99.90;;;;;;647372;222;26562;-81
2021/12/19 07:39:40;;;;;;;7.77;3.60;;;7.20;99.90;;;;;;647359;222;26579;-82
2021/12/19 07:41:55;;;;;;;3.70;3.10;;;7.10;99.90;;;;;;646124;222;26525;-79
2021/12/19 07:44:22;;;;;;;5.67;3.10;;;7.10;99.90;;;;;;647249;222;26852;-80
2021/12/19 07:46:50;;;;;;;3.77;3.30;;;7.10;99.90;;;;;;647260;220;26516;-82
2021/12/19 07:49:17;;;;;;;4.07;2.67;;;7.00;99.90;;;;;;647271;222;26778;-82
2021/12/19 07:51:45;;;;;;;6.80;3.43;;;7.00;99.90;;;;;;647271;222;26742;-82
2021/12/19 07:54:13;;;;;;;5.13;3.20;;;7.00;99.90;;;;;;647277;222;26511;-82
2021/12/19 07:56:40;;;;;;;2.73;2.53;;;6.90;99.90;;;;;;647279;221;26897;-82
2021/12/19 07:59:07;;;;;;;3.03;1.90;;;6.90;99.90;;;;;;647228;222;26544;-82
2021/12/19 08:01:34;;;;;;;3.70;2.43;;;6.80;99.90;;;;;;647260;222;26805;-82
2021/12/19 08:04:02;;;;;;;2.73;2.20;;;6.80;99.90;;;;;;647398;222;26493;-81
2021/12/19 08:06:30;;;;;;;2.90;2.37;;;6.70;99.90;;;;;;647387;222;26527;-84
2021/12/19 08:09:07;;;;;;;2.60;2.40;;;6.60;99.90;;;;;;647342;220;26618;-79
2021/12/19 08:13:58;;;;;;;4.47;2.07;;;6.80;99.90;;;;;;637771;221;26837;-81
2021/12/19 08:16:26;;;;;;;2.10;2.00;;;6.70;99.90;;;;;;639166;225;26550;-81
2021/12/19 08:18:53;;;;;;;6.67;2.10;;;6.70;99.90;;;;;;638563;225;26531;-81
2021/12/19 08:21:21;;;;;;;2.97;1.90;;;6.70;99.90;;;;;;638403;225;26562;-81
2021/12/19 08:23:49;;;;;;;2.10;2.00;;;6.60;99.90;;;;;;638217;225;26560;-81
2021/12/19 08:26:16;;;;;;;2.20;2.00;;;6.60;99.90;;;;;;638029;221;26777;-81
2021/12/19 08:28:44;;;;;;;2.23;2.03;;;6.60;99.90;;;;;;638016;225;26497;-83
2021/12/19 08:31:12;;;;;;;2.50;2.10;;;6.50;99.90;;;;;;638062;225;26488;-82
2021/12/19 08:33:39;;;;;;;4.03;2.10;;;6.50;99.90;;;;;;637850;225;26743;-81
2021/12/19 08:36:07;;;;;;;2.60;1.93;;;6.60;99.90;;;;;;637740;225;26566;-82
2021/12/19 08:38:33;;;;;;;4.00;2.30;;;6.70;99.90;;;;;;637666;220;26810;-82
2021/12/19 08:41:01;;;;;;;2.67;1.93;;;6.60;99.90;;;;;;637748;225;26548;-79
2021/12/19 08:43:29;;;;;;;5.00;1.87;;;6.60;99.90;;;;;;637731;225;26542;-80
2021/12/19 08:45:56;;;;;;;2.07;1.80;;;6.60;99.90;;;;;;637553;225;26575;-80
2021/12/19 08:48:23;;;;;;;3.00;2.20;;;6.50;99.90;;;;;;637711;221;26580;-80
2021/12/19 08:50:51;;;;;;;4.13;2.10;;;6.60;99.90;;;;;;637585;225;26788;-80
2021/12/19 08:53:18;;;;;;;4.53;2.23;;;6.50;99.90;;;;;;637479;226;26579;-79
2021/12/19 08:55:45;;;;;;;2.30;2.10;;;6.60;99.90;;;;;;637496;221;26587;-80
2021/12/19 08:58:13;;;;;;;3.03;1.80;;;6.60;99.90;;;;;;637529;226;26574;-81
2021/12/19 09:00:40;;;;;;;3.60;2.00;;;6.50;99.90;;;;;;637523;226;26823;-80
2021/12/19 09:03:08;;;;;;;3.80;2.33;;;6.60;99.90;;;;;;637545;226;26581;-80
2021/12/19 09:05:35;;;;;;;2.40;2.13;;;6.60;99.90;;;;;;637564;226;26807;-80
2021/12/19 09:08:02;;;;;;;2.37;2.17;;;6.70;99.90;;;;;;637775;226;26599;-79
2021/12/19 09:10:29;;;;;;;2.10;1.90;;;6.60;99.90;;;;;;637823;226;26612;-81
2021/12/19 09:12:56;;;;;;;2.60;1.97;;;6.60;99.90;;;;;;637493;226;26563;-81
2021/12/19 09:15:23;;;;;;;5.23;2.30;;;6.60;99.90;;;;;;637588;225;26530;-79
2021/12/19 09:17:51;;;;;;;2.07;1.93;;;6.60;99.90;;;;;;637779;226;26846;-81
2021/12/19 09:20:18;;;;;;;5.03;2.10;;;6.50;99.90;;;;;;637632;226;26591;-81
2021/12/19 09:22:45;;;;;;;2.60;2.33;;;6.60;99.90;;;;;;637455;226;26576;-82
2021/12/19 09:25:13;;;;;;;3.30;1.80;;;6.80;99.90;;;;;;637451;226;26548;-81
2021/12/19 09:27:40;;;;;;;2.37;2.23;;;6.80;99.90;;;;;;639214;223;26768;-81
2021/12/19 09:30:08;;;;;;;4.20;2.20;;;6.60;99.90;;;;;;638669;225;26540;-81
2021/12/19 09:32:35;;;;;;;3.80;2.07;;;6.60;99.90;;;;;;638383;225;26567;-81
2021/12/19 09:35:02;;;;;;;2.23;2.10;;;6.60;99.90;;;;;;638240;225;26548;-80
2021/12/19 09:37:30;;;;;;;2.63;2.30;;;6.60;99.90;;;;;;638083;222;26505;-80
2021/12/19 09:40:01;;;;;;;2.50;2.30;;;6.60;99.90;;;;;;638048;225;26773;-80
2021/12/19 09:42:33;;;;;;;2.40;2.20;;;6.60;99.90;;;;;;637724;225;26512;-80
2021/12/19 09:44:52;;;;;;;3.17;2.27;;;6.70;99.90;;;;;;637135;225;26793;-86
2021/12/19 09:47:20;;;;;;;3.77;2.80;;;6.70;99.90;;;;;;638202;225;26474;-84
2021/12/19 09:49:48;;;;;;;3.47;2.53;;;6.70;99.90;;;;;;638159;225;26515;-84
2021/12/19 09:52:15;;;;;;;4.27;2.53;;;6.60;99.90;;;;;;638161;225;26757;-82
2021/12/19 09:54:42;;;;;;;5.63;2.50;;;6.60;99.90;;;;;;637963;225;26511;-83
2021/12/19 09:57:09;;;;;;;4.13;2.47;;;6.60;99.90;;;;;;637787;225;26764;-80
2021/12/19 09:59:36;;;;;;;3.53;2.40;;;6.70;99.90;;;;;;637751;225;26579;-80
2021/12/19 10:02:04;;;;;;;3.53;2.63;;;6.80;99.90;;;;;;637520;225;26557;-79
2021/12/19 10:04:33;;;;;;;5.97;2.27;;;6.70;99.90;;;;;;637337;226;26595;-80
2021/12/19 10:07:18;;;;;;;3.50;2.53;;;6.60;99.90;;;;;;637249;226;26551;-80
2021/12/19 10:09:50;;;;;;;2.53;2.13;;;6.60;99.90;;;;;;637213;222;26595;-83
2021/12/19 10:12:48;;;;;;;4.77;2.73;;;6.70;99.90;;;;;;638837;221;26782;-80
2021/12/19 10:15:10;;;;;;;3.07;2.03;;;6.70;99.90;;;;;;642445;221;26589;-80
2021/12/19 10:17:37;;;;;;;4.07;2.37;;;6.70;99.90;;;;;;643856;221;26557;-80
2021/12/19 10:20:07;;;;;;;2.30;2.10;;;6.70;99.90;;;;;;642933;222;26587;-81
2021/12/19 10:22:39;;;;;;;5.47;2.40;;;6.70;99.90;;;;;;646997;222;26556;-81
2021/12/19 10:25:18;;;;;;;6.00;2.50;;;6.70;99.90;;;;;;643104;222;26502;-81
2021/12/19 10:27:45;;;;;;;3.77;2.13;;;6.70;99.90;;;;;;648195;221;26772;-83
2021/12/19 10:30:18;;;;;;;4.43;2.03;;;6.60;99.90;;;;;;647550;221;26600;-83
2021/12/19 10:32:54;;;;;;;3.40;2.40;;;6.60;99.90;;;;;;651133;221;26510;-83
2021/12/19 10:35:21;;;;;;;4.33;2.13;;;6.60;99.90;;;;;;645166;221;26897;-82
2021/12/19 10:37:48;;;;;;;5.20;2.53;;;6.70;99.90;;;;;;641421;222;26577;-83
2021/12/19 10:40:15;;;;;;;4.27;2.67;;;6.70;99.90;;;;;;647538;221;26597;-82
2021/12/19 10:42:49;;;;;;;3.40;2.43;;;6.90;99.90;;;;;;639823;221;26553;-83
2021/12/19 10:47:49;;;;;;;2.53;2.30;;;7.00;99.90;;;;;;647991;222;26514;-85
2021/12/19 10:50:16;;;;;;;6.53;4.27;;;7.00;99.90;;;;;;647924;222;26534;-84
2021/12/19 10:52:44;;;;;;;3.97;2.87;;;6.70;99.90;;;;;;648693;222;26552;-84
2021/12/19 10:55:12;;;;;;;3.57;2.60;;;6.70;99.90;;;;;;648991;222;26586;-84
2021/12/19 10:57:38;;;;;;;3.00;2.53;;;6.70;99.90;;;;;;648690;221;26520;-83
2021/12/19 11:00:09;;;;;;;5.83;2.67;;;6.90;99.90;;;;;;648694;222;27197;-83
2021/12/19 11:02:36;;;;;;;4.93;2.80;;;6.80;99.90;;;;;;648641;221;26511;-83
2021/12/19 11:05:04;;;;;;;6.67;2.57;;;6.80;99.90;;;;;;648838;222;26745;-87
2021/12/19 11:07:31;;;;;;;3.73;2.57;;;6.80;99.90;;;;;;648738;222;26533;-82
2021/12/19 11:09:58;;;;;;;4.63;2.47;;;6.90;99.90;;;;;;648698;221;26789;-81
2021/12/19 11:12:26;;;;;;;6.53;2.47;;;7.10;99.90;;;;;;645153;222;26525;-83
2021/12/19 11:14:53;;;;;;;3.17;2.33;;;7.00;99.90;;;;;;648261;222;26788;-83
2021/12/19 11:17:21;;;;;;;3.50;2.30;;;7.00;99.90;;;;;;648274;222;26538;-83
2021/12/19 11:19:49;;;;;;;5.43;2.37;;;7.00;99.90;;;;;;648359;222;26913;-82
2021/12/19 11:22:23;;;;;;;6.27;2.57;;;7.00;99.90;;;;;;648427;222;26557;-83
2021/12/19 11:24:45;;;;;;;4.70;2.27;;;6.90;99.90;;;;;;647910;221;26608;-82
2021/12/19 11:27:12;;;;;;;7.53;2.63;;;6.90;99.90;;;;;;648365;221;26791;-82
2021/12/19 11:29:40;;;;;;;3.87;2.50;;;7.00;99.90;;;;;;648329;222;26574;-82
2021/12/19 11:32:08;;;;;;;3.63;2.37;;;7.20;99.90;;;;;;648248;221;26813;-82
2021/12/19 11:34:56;;;;;;;4.30;2.70;;;7.40;99.90;;;;;;648243;221;26559;-82
2021/12/19 11:37:24;;;;;;;6.10;2.17;;;7.20;99.90;;;;;;646852;222;26574;-82
2021/12/19 11:39:51;;;;;;;4.30;2.60;;;7.00;99.90;;;;;;648251;221;26581;-83
2021/12/19 11:42:21;;;;;;;4.77;2.50;;;7.00;99.90;;;;;;648324;221;26777;-83
2021/12/19 11:47:32;;;;;;;4.30;2.20;;;7.00;99.90;;;;;;648367;222;26791;-83
2021/12/19 11:50:23;;;;;;;5.10;2.20;;;7.00;99.90;;;;;;649387;219;26595;-83
2021/12/19 11:52:49;;;;;;;6.87;2.67;;;7.10;99.90;;;;;;649598;221;26584;-82
2021/12/19 11:55:19;;;;;;;6.57;4.07;;;7.00;99.90;;;;;;649350;221;26613;-82
2021/12/19 11:58:08;;;;;;;9.70;2.53;;;6.90;99.90;;;;;;649251;221;26536;-82
2021/12/19 12:00:36;;;;;;;7.33;2.47;;;7.00;99.90;;;;;;644197;217;26583;-83
2021/12/19 12:03:24;;;;;;;3.00;2.70;;;6.80;99.90;;;;;;648886;221;26847;-83
2021/12/19 12:05:52;;;;;;;5.90;2.87;;;7.00;99.90;;;;;;648940;221;26773;-82
2021/12/19 12:08:21;;;;;;;6.30;2.70;;;6.90;99.90;;;;;;647118;222;26765;-82
2021/12/19 12:11:10;;;;;;;5.83;2.53;;;6.90;99.90;;;;;;648569;221;26551;-83
2021/12/19 12:13:39;;;;;;;5.37;2.90;;;6.90;99.90;;;;;;648015;221;26548;-83
2021/12/19 12:16:35;;;;;;;6.63;2.53;;;6.90;99.90;;;;;;648759;222;26516;-83
2021/12/19 12:18:58;;;;;;;3.30;2.33;;;6.90;99.90;;;;;;648400;218;26621;-83
2021/12/19 12:21:27;;;;;;;7.57;2.53;;;6.90;99.90;;;;;;648715;222;26547;-82
2021/12/19 12:23:54;;;;;;;4.17;2.47;;;7.00;99.90;;;;;;648490;221;26831;-83
2021/12/19 12:26:35;;;;;;;6.07;3.10;;;7.00;99.90;;;;;;648108;221;26793;-83
2021/12/19 12:28:58;;;;;;;7.00;2.40;;;7.00;99.90;;;;;;647995;221;26608;-83
2021/12/19 12:31:25;;;;;;;5.77;2.77;;;7.00;99.90;;;;;;648394;222;26781;-83
2021/12/19 12:33:52;;;;;;;6.73;2.37;;;7.10;99.90;;;;;;648363;222;26550;-83
2021/12/19 12:36:20;;;;;;;3.70;2.70;;;7.00;99.90;;;;;;648346;222;27270;-83
2021/12/19 12:38:50;;;;;;;5.67;2.30;;;7.10;99.90;;;;;;648311;222;26561;-83
2021/12/19 12:41:28;;;;;;;7.27;3.00;;;7.10;99.90;;;;;;648149;221;26596;-83
2021/12/19 12:43:43;;;;;;;61.77;35.60;;;7.10;99.90;;;;;;647421;221;26574;-83
2021/12/19 12:46:13;;;;;;;7.60;2.70;;;7.00;99.90;;;;;;648349;221;26795;-83
2021/12/19 12:48:57;;;;;;;5.00;2.47;;;7.00;99.90;;;;;;648333;222;26521;-83
2021/12/19 12:51:27;;;;;;;4.57;2.83;;;7.00;99.90;;;;;;648333;221;26551;-83
2021/12/19 12:53:54;;;;;;;4.93;2.77;;;7.00;99.90;;;;;;648313;221;26574;-82
2021/12/19 12:56:24;;;;;;;4.43;2.33;;;7.00;99.90;;;;;;648717;221;26771;-83
2021/12/19 12:58:51;;;;;;;6.33;2.77;;;7.00;99.90;;;;;;648570;221;26527;-82
2021/12/19 13:01:21;;;;;;;8.57;2.90;;;7.00;99.90;;;;;;649816;219;26756;-82
2021/12/19 13:03:54;;;;;;;4.37;2.33;;;7.00;99.90;;;;;;650150;221;26544;-83
2021/12/19 13:06:33;;;;;;;3.30;2.47;;;7.00;99.90;;;;;;649863;216;26536;-83
2021/12/19 13:09:12;;;;;;;2.63;2.00;;;7.00;99.90;;;;;;649751;221;26524;-84
2021/12/19 13:11:39;;;;;;;5.40;2.47;;;6.90;99.90;;;;;;649468;222;26500;-83
2021/12/19 13:14:18;;;;;;;4.10;2.63;;;6.90;99.90;;;;;;649430;222;26562;-84
2021/12/19 13:16:46;;;;;;;3.27;2.23;;;7.10;99.90;;;;;;649271;221;26549;-83
2021/12/19 13:19:24;;;;;;;5.53;2.57;;;7.10;99.90;;;;;;648988;221;26788;-83
2021/12/19 13:21:54;;;;;;;7.00;2.27;;;7.00;99.90;;;;;;648691;222;26500;-84
2021/12/19 13:24:21;;;;;;;3.40;2.27;;;6.90;99.90;;;;;;648686;222;26502;-84
2021/12/19 13:26:48;;;;;;;4.77;2.40;;;6.90;99.90;;;;;;648602;222;26523;-84
2021/12/19 13:29:18;;;;;;;3.37;2.57;;;6.90;99.90;;;;;;648773;221;26560;-83
2021/12/19 13:31:45;;;;;;;6.53;2.53;;;7.00;99.90;;;;;;648809;222;26544;-84
2021/12/19 13:34:13;;;;;;;3.97;2.20;;;7.30;99.90;;;;;;648760;222;26765;-84
2021/12/19 13:36:40;;;;;;;20.50;9.17;;;7.20;99.90;;;;;;648564;221;26556;-84
2021/12/19 13:39:16;;;;;;;4.73;2.20;;;7.10;99.90;;;;;;648414;221;26601;-83
2021/12/19 13:41:43;;;;;;;3.23;2.10;;;7.10;99.90;;;;;;648442;222;26562;-83
2021/12/19 13:44:10;;;;;;;3.97;2.50;;;7.00;99.90;;;;;;648454;222;26527;-83
2021/12/19 13:46:37;;;;;;;4.80;2.33;;;7.00;99.90;;;;;;648429;221;26552;-83
2021/12/19 13:49:05;;;;;;;3.50;2.47;;;7.00;99.90;;;;;;648443;222;27273;-83
2021/12/19 13:51:34;;;;;;;4.20;2.23;;;7.00;99.90;;;;;;648492;222;26560;-85
2021/12/19 13:54:01;;;;;;;3.57;2.20;;;7.00;99.90;;;;;;648389;221;26551;-83
2021/12/19 13:56:28;;;;;;;4.60;2.57;;;7.00;99.90;;;;;;648447;222;26570;-83
2021/12/19 13:58:57;;;;;;;6.80;2.50;;;7.00;99.90;;;;;;648405;222;26884;-83
2021/12/19 14:01:39;;;;;;;3.50;2.30;;;7.00;99.90;;;;;;648405;221;26562;-84
2021/12/19 14:04:15;;;;;;;5.60;2.60;;;7.00;99.90;;;;;;648482;222;26585;-84